createdAt,value
2022-08-11T00:01:05.243Z,98597.03
2022-08-11T00:03:08.087Z,98597.84
2022-08-11T00:05:09.493Z,98594.56
2022-08-11T00:07:10.851Z,98603.25
2022-08-11T00:09:12.292Z,98603.19
2022-08-11T00:11:13.677Z,98597.22
2022-08-11T00:13:15.370Z,98597.22
2022-08-11T00:15:18.309Z,98598.91
2022-08-11T00:17:19.620Z,98600.63
2022-08-11T00:20:13.978Z,98599.81
2022-08-11T00:22:04.398Z,98603.22
2022-08-11T00:24:03.720Z,98603.19
2022-08-11T00:26:05.051Z,98607.47
2022-08-11T00:28:06.366Z,98605.81
2022-08-11T00:30:07.752Z,98604.09
2022-08-11T00:32:09.367Z,98610.13
2022-08-11T00:34:10.799Z,98603.31
2022-08-11T00:36:13.037Z,98608.59
2022-08-11T00:38:14.366Z,98612.03
2022-08-11T00:40:15.735Z,98607.88
2022-08-11T00:42:17.213Z,98613.97
2022-08-11T00:44:18.527Z,98600.28
2022-08-11T00:46:19.834Z,98597.56
2022-08-11T00:48:21.187Z,98602.56
2022-08-11T00:50:22.503Z,98600.00
2022-08-11T00:52:23.852Z,98599.22
2022-08-11T00:54:25.276Z,98600.94
2022-08-11T00:56:26.627Z,98599.16
2022-08-11T00:58:27.927Z,98604.19
2022-08-11T01:00:29.560Z,98605.88
2022-08-11T01:02:30.911Z,98601.69
2022-08-11T01:04:32.271Z,98600.94
2022-08-11T01:06:33.993Z,98609.50
2022-08-11T01:08:36.211Z,98604.53
2022-08-11T01:10:37.511Z,98596.91
2022-08-11T01:12:39.158Z,98595.97
2022-08-11T01:14:40.720Z,98592.69
2022-08-11T01:16:42.072Z,98597.84
2022-08-11T01:18:43.394Z,98599.53
2022-08-11T01:20:48.926Z,98595.28
2022-08-11T01:22:51.734Z,98601.25
2022-08-11T01:24:53.043Z,98600.34
2022-08-11T01:26:54.392Z,98594.34
2022-08-11T01:28:55.699Z,98593.47
2022-08-11T01:30:57.003Z,98594.19
2022-08-11T01:32:58.357Z,98593.38
2022-08-11T01:34:59.662Z,98595.13
2022-08-11T01:37:01.005Z,98602.09
2022-08-11T01:39:02.371Z,98602.16
2022-08-11T01:41:03.718Z,98597.03
2022-08-11T01:43:23.482Z,98599.47
2022-08-11T01:45:24.830Z,98598.63
2022-08-11T01:47:52.868Z,98593.56
2022-08-11T01:50:07.663Z,98592.69
2022-08-11T01:52:11.399Z,98593.63
2022-08-11T01:54:12.694Z,98597.03
2022-08-11T01:56:13.990Z,98587.72
2022-08-11T01:58:15.332Z,98590.13
2022-08-11T02:00:16.651Z,98581.53
2022-08-11T02:02:21.473Z,98590.94
2022-08-11T02:04:23.100Z,98584.19
2022-08-11T02:06:42.987Z,98582.47
2022-08-11T02:08:44.351Z,98580.84
2022-08-11T02:11:12.711Z,98584.19
2022-08-11T02:13:15.535Z,98587.63
2022-08-11T02:15:16.847Z,98579.19
2022-08-11T02:17:18.155Z,98578.34
2022-08-11T02:19:38.157Z,98579.97
2022-08-11T02:21:58.162Z,98584.34
2022-08-11T02:24:06.670Z,98581.84
2022-08-11T02:26:09.153Z,98579.31
2022-08-11T02:28:11.134Z,98583.50
2022-08-11T02:30:12.451Z,98583.50
2022-08-11T02:32:32.607Z,98581.84
2022-08-11T02:34:33.955Z,98586.88
2022-08-11T02:36:35.258Z,98587.75
2022-08-11T02:38:36.583Z,98592.88
2022-08-11T02:40:37.932Z,98596.28
2022-08-11T02:42:39.275Z,98594.69
2022-08-11T02:44:40.591Z,98593.94
2022-08-11T02:46:42.231Z,98588.03
2022-08-11T02:49:02.242Z,98589.78
2022-08-11T02:51:03.603Z,98597.50
2022-08-11T02:53:04.947Z,98594.19
2022-08-11T02:55:06.841Z,98594.28
2022-08-11T02:57:11.425Z,98589.22
2022-08-11T02:59:31.738Z,98596.34
2022-08-11T03:01:33.244Z,98591.13
2022-08-11T03:03:36.297Z,98597.41
2022-08-11T03:05:37.617Z,98599.19
2022-08-11T03:07:38.966Z,98596.81
2022-08-11T03:09:40.355Z,98591.91
2022-08-11T03:12:00.364Z,98597.03
2022-08-11T03:14:20.299Z,98593.69
2022-08-11T03:16:40.467Z,98591.16
2022-08-11T03:18:41.782Z,98585.19
2022-08-11T03:20:43.651Z,98584.31
2022-08-11T03:22:45.083Z,98587.72
2022-08-11T03:24:46.550Z,98586.97
2022-08-11T03:26:47.975Z,98584.34
2022-08-11T03:28:49.403Z,98580.13
2022-08-11T03:30:50.764Z,98583.47
2022-08-11T03:33:12.072Z,98592.97
2022-08-11T03:35:21.325Z,98584.44
2022-08-11T03:37:41.726Z,98598.03
2022-08-11T03:39:56.141Z,98593.00
2022-08-11T03:42:03.865Z,98596.47
2022-08-11T03:44:06.763Z,98598.00
2022-08-11T03:46:08.135Z,98586.09
2022-08-11T03:48:09.710Z,98586.94
2022-08-11T03:50:11.011Z,98589.50
2022-08-11T03:52:12.371Z,98589.63
2022-08-11T03:54:16.076Z,98598.09
2022-08-11T03:56:19.138Z,98589.56
2022-08-11T03:58:20.498Z,98598.06
2022-08-11T04:00:21.881Z,98588.78
2022-08-11T04:02:23.183Z,98593.00
2022-08-11T04:04:24.542Z,98593.84
2022-08-11T04:06:25.896Z,98589.69
2022-08-11T04:08:27.212Z,98592.19
2022-08-11T04:10:35.816Z,98583.66
2022-08-11T04:12:37.228Z,98599.88
2022-08-11T04:14:57.135Z,98582.03
2022-08-11T04:16:58.775Z,98585.59
2022-08-11T04:19:00.189Z,98594.88
2022-08-11T04:21:01.484Z,98583.81
2022-08-11T04:23:03.606Z,98590.50
2022-08-11T04:25:04.983Z,98599.81
2022-08-11T04:27:07.338Z,98592.19
2022-08-11T04:29:11.970Z,98592.16
2022-08-11T04:31:13.324Z,98591.31
2022-08-11T04:33:37.710Z,98602.47
2022-08-11T04:35:39.102Z,98598.22
2022-08-11T04:37:40.414Z,98601.66
2022-08-11T04:39:41.789Z,98594.00
2022-08-11T04:42:03.087Z,98601.66
2022-08-11T04:44:06.224Z,98599.97
2022-08-11T04:46:08.043Z,98596.63
2022-08-11T04:48:28.012Z,98598.25
2022-08-11T04:51:09.164Z,98593.13
2022-08-11T04:53:28.507Z,98600.66
2022-08-11T04:55:48.486Z,98593.91
2022-08-11T04:58:10.459Z,98599.81
2022-08-11T05:00:30.302Z,98597.31
2022-08-11T05:02:31.639Z,98599.88
2022-08-11T05:04:51.463Z,98594.78
2022-08-11T05:06:52.803Z,98598.13
2022-08-11T05:08:54.160Z,98599.81
2022-08-11T05:10:55.463Z,98604.84
2022-08-11T05:12:56.765Z,98600.56
2022-08-11T05:15:16.896Z,98595.44
2022-08-11T05:17:36.679Z,98608.16
2022-08-11T05:19:56.667Z,98607.31
2022-08-11T05:22:16.449Z,98607.31
2022-08-11T05:24:36.502Z,98611.53
2022-08-11T05:26:56.413Z,98603.03
2022-08-11T05:29:19.687Z,98611.53
2022-08-11T05:31:40.823Z,98610.69
2022-08-11T05:34:00.740Z,98608.16
2022-08-11T05:36:03.292Z,98614.91
2022-08-11T05:38:23.430Z,98611.53
2022-08-11T05:40:43.686Z,98612.41
2022-08-11T05:43:11.224Z,98607.25
2022-08-11T05:45:58.289Z,98613.19
2022-08-11T05:48:11.295Z,98608.06
2022-08-11T05:50:33.178Z,98612.31
2022-08-11T05:52:55.440Z,98614.00
2022-08-11T05:55:16.892Z,98619.13
2022-08-11T05:57:42.343Z,98622.50
2022-08-11T05:59:39.528Z,98621.63
2022-08-11T06:01:40.922Z,98618.22
2022-08-11T06:04:01.010Z,98613.13
2022-08-11T06:06:02.353Z,98613.94
2022-08-11T06:08:03.705Z,98617.31
2022-08-11T06:10:05.015Z,98619.03
2022-08-11T06:12:06.642Z,98609.66
2022-08-11T06:14:08.001Z,98614.72
2022-08-11T06:16:09.320Z,98616.41
2022-08-11T06:18:11.207Z,98617.25
2022-08-11T06:20:13.299Z,98624.03
2022-08-11T06:22:14.651Z,98624.81
2022-08-11T06:24:15.962Z,98634.16
2022-08-11T06:26:17.285Z,98635.81
2022-08-11T06:28:21.350Z,98635.72
2022-08-11T06:30:23.498Z,98634.84
2022-08-11T06:32:24.843Z,98633.97
2022-08-11T06:34:27.462Z,98637.34
2022-08-11T06:36:29.232Z,98636.47
2022-08-11T06:38:30.579Z,98635.53
2022-08-11T06:40:31.883Z,98635.53
2022-08-11T06:42:33.230Z,98634.66
2022-08-11T06:44:34.579Z,98638.03
2022-08-11T06:46:39.340Z,98642.25
2022-08-11T06:48:40.691Z,98634.53
2022-08-11T06:51:00.815Z,98643.00
2022-08-11T06:53:02.147Z,98639.59
2022-08-11T06:55:06.620Z,98631.03
2022-08-11T06:57:29.974Z,98636.13
2022-08-11T06:59:50.738Z,98637.81
2022-08-11T07:01:52.130Z,98632.72
2022-08-11T07:03:54.542Z,98629.28
2022-08-11T07:05:55.933Z,98625.88
2022-08-11T07:08:34.930Z,98630.13
2022-08-11T07:10:55.568Z,98628.41
2022-08-11T07:13:44.842Z,98624.97
2022-08-11T07:16:12.910Z,98627.53
2022-08-11T07:18:23.119Z,98621.56
2022-08-11T07:20:43.211Z,98626.63
2022-08-11T07:23:10.454Z,98630.91
2022-08-11T07:25:30.658Z,98627.47
2022-08-11T07:27:50.428Z,98618.09
2022-08-11T07:29:52.071Z,98622.34
2022-08-11T07:31:54.010Z,98623.19
2022-08-11T07:34:05.879Z,98618.09
2022-08-11T07:36:13.008Z,98624.88
2022-08-11T07:38:15.582Z,98620.59
2022-08-11T07:40:19.499Z,98619.75
2022-08-11T07:42:21.458Z,98618.06
2022-08-11T07:44:29.402Z,98610.38
2022-08-11T07:46:52.378Z,98618.81
2022-08-11T07:49:12.099Z,98611.94
2022-08-11T07:51:31.988Z,98617.78
2022-08-11T07:53:33.317Z,98625.38
2022-08-11T07:55:48.987Z,98614.16
2022-08-11T07:58:19.596Z,98620.00
2022-08-11T08:00:40.393Z,98618.25
2022-08-11T08:03:00.435Z,98623.34
2022-08-11T08:05:20.463Z,98613.88
2022-08-11T08:07:40.397Z,98617.25
2022-08-11T08:10:00.590Z,98623.97
2022-08-11T08:12:20.789Z,98617.13
2022-08-11T08:14:40.674Z,98613.69
2022-08-11T08:17:00.675Z,98619.59
2022-08-11T08:19:01.985Z,98616.16
2022-08-11T08:21:12.230Z,98615.25
2022-08-11T08:23:13.715Z,98614.41
2022-08-11T08:25:15.024Z,98607.59
2022-08-11T08:27:16.403Z,98611.81
2022-08-11T08:29:36.180Z,98621.19
2022-08-11T08:31:37.478Z,98615.13
2022-08-11T08:33:38.878Z,98615.13
2022-08-11T08:35:54.241Z,98608.25
2022-08-11T08:37:59.662Z,98613.38
2022-08-11T08:40:00.969Z,98610.81
2022-08-11T08:42:02.275Z,98603.09
2022-08-11T08:44:27.716Z,98609.88
2022-08-11T08:46:25.034Z,98609.84
2022-08-11T08:48:26.355Z,98599.56
2022-08-11T08:50:48.589Z,98595.28
2022-08-11T08:52:53.310Z,98593.59
2022-08-11T08:54:54.610Z,98591.91
2022-08-11T08:56:55.942Z,98590.19
2022-08-11T08:58:57.679Z,98582.56
2022-08-11T09:00:59.085Z,98602.13
2022-08-11T09:03:17.227Z,98595.28
2022-08-11T09:05:25.848Z,98595.22
2022-08-11T09:07:30.265Z,98586.69
2022-08-11T09:09:34.092Z,98592.66
2022-08-11T09:11:50.523Z,98590.06
2022-08-11T09:14:06.593Z,98592.59
2022-08-11T09:16:09.650Z,98588.34
2022-08-11T09:18:11.236Z,98582.41
2022-08-11T09:20:12.639Z,98583.28
2022-08-11T09:22:32.970Z,98589.19
2022-08-11T09:24:53.254Z,98584.09
2022-08-11T09:27:01.097Z,98581.53
2022-08-11T09:29:02.882Z,98579.00
2022-08-11T09:31:04.189Z,98583.25
2022-08-11T09:33:05.625Z,98574.75
2022-08-11T09:35:06.947Z,98581.59
2022-08-11T09:37:53.643Z,98570.47
2022-08-11T09:40:06.944Z,98579.00
2022-08-11T09:42:11.388Z,98568.72
2022-08-11T09:44:36.798Z,98569.56
2022-08-11T09:46:39.728Z,98555.06
2022-08-11T09:48:41.071Z,98549.91
2022-08-11T09:50:42.426Z,98563.56
2022-08-11T09:53:03.624Z,98559.34
2022-08-11T09:55:11.108Z,98555.13
2022-08-11T09:57:31.676Z,98559.41
2022-08-11T09:59:33.228Z,98564.47
2022-08-11T10:01:34.663Z,98561.06
2022-08-11T10:03:40.342Z,98568.78
2022-08-11T10:06:04.540Z,98568.78
2022-08-11T10:08:08.677Z,98563.66
2022-08-11T10:10:10.063Z,98570.47
2022-08-11T10:12:12.078Z,98568.72
2022-08-11T10:14:34.980Z,98563.66
2022-08-11T10:16:36.603Z,98556.81
2022-08-11T10:18:49.583Z,98563.59
2022-08-11T10:20:50.912Z,98561.00
2022-08-11T10:23:10.726Z,98561.88
2022-08-11T10:25:41.341Z,98553.38
2022-08-11T10:28:17.062Z,98556.78
2022-08-11T10:30:22.591Z,98562.81
2022-08-11T10:32:57.961Z,98560.34
2022-08-11T10:35:00.891Z,98562.00
2022-08-11T10:37:03.109Z,98556.03
2022-08-11T10:39:04.527Z,98556.88
2022-08-11T10:41:24.762Z,98547.50
2022-08-11T10:44:01.220Z,98556.78
2022-08-11T10:46:06.226Z,98550.75
2022-08-11T10:48:10.001Z,98545.56
2022-08-11T10:50:32.489Z,98541.31
2022-08-11T10:52:52.522Z,98542.16
2022-08-11T10:55:12.408Z,98531.94
2022-08-11T10:57:32.226Z,98537.13
2022-08-11T10:59:33.526Z,98532.88
2022-08-11T11:01:34.977Z,98540.50
2022-08-11T11:03:38.039Z,98531.13
2022-08-11T11:05:39.330Z,98525.91
2022-08-11T11:08:02.983Z,98529.28
2022-08-11T11:10:04.312Z,98532.69
2022-08-11T11:12:24.391Z,98527.56
2022-08-11T11:14:46.805Z,98523.41
2022-08-11T11:17:10.210Z,98516.59
2022-08-11T11:19:11.724Z,98516.63
2022-08-11T11:21:13.086Z,98519.19
2022-08-11T11:23:14.430Z,98530.28
2022-08-11T11:25:16.788Z,98518.22
2022-08-11T11:27:18.131Z,98515.56
2022-08-11T11:29:20.483Z,98517.25
2022-08-11T11:31:22.607Z,98506.97
2022-08-11T11:33:23.959Z,98506.06
2022-08-11T11:35:26.843Z,98507.81
2022-08-11T11:37:28.244Z,98497.59
2022-08-11T11:39:29.710Z,98513.00
2022-08-11T11:41:31.100Z,98509.47
2022-08-11T11:43:32.443Z,98497.44
2022-08-11T11:45:33.792Z,98496.66
2022-08-11T11:47:35.875Z,98499.31
2022-08-11T11:49:40.363Z,98497.63
2022-08-11T11:51:41.699Z,98499.25
2022-08-11T11:53:45.430Z,98501.69
2022-08-11T11:55:46.749Z,98504.25
2022-08-11T11:58:06.588Z,98499.19
2022-08-11T12:00:33.707Z,98487.31
2022-08-11T12:02:35.245Z,98491.56
2022-08-11T12:04:37.084Z,98493.31
2022-08-11T12:06:38.806Z,98482.19
2022-08-11T12:08:40.266Z,98477.06
2022-08-11T12:10:41.603Z,98477.91
2022-08-11T12:13:01.686Z,98482.97
2022-08-11T12:15:02.996Z,98479.50
2022-08-11T12:17:04.339Z,98472.56
2022-08-11T12:19:05.668Z,98478.59
2022-08-11T12:21:06.979Z,98476.88
2022-08-11T12:23:26.830Z,98480.19
2022-08-11T12:25:50.006Z,98477.59
2022-08-11T12:27:57.018Z,98478.44
2022-08-11T12:29:58.402Z,98473.97
2022-08-11T12:32:00.549Z,98468.28
2022-08-11T12:34:02.280Z,98465.84
2022-08-11T12:36:03.583Z,98461.00
2022-08-11T12:38:10.675Z,98469.38
2022-08-11T12:40:49.631Z,98454.91
2022-08-11T12:43:21.246Z,98454.91
2022-08-11T12:45:29.603Z,98448.44
2022-08-11T12:48:57.201Z,98457.56
2022-08-11T12:50:30.752Z,98446.72
2022-08-11T12:52:33.997Z,98451.94
2022-08-11T12:54:35.315Z,98457.97
2022-08-11T12:56:55.584Z,98447.63
2022-08-11T12:59:15.798Z,98442.47
2022-08-11T13:01:36.009Z,98444.16
2022-08-11T13:03:56.736Z,98444.16
2022-08-11T13:05:58.330Z,98427.94
2022-08-11T13:07:59.663Z,98433.31
2022-08-11T13:10:01.717Z,98430.31
2022-08-11T13:12:21.580Z,98431.44
2022-08-11T13:14:22.900Z,98424.38
2022-08-11T13:16:24.235Z,98431.16
2022-08-11T13:18:27.701Z,98417.13
2022-08-11T13:20:29.058Z,98419.34
2022-08-11T13:22:30.402Z,98417.94
2022-08-11T13:24:36.811Z,98411.00
2022-08-11T13:26:47.293Z,98411.84
2022-08-11T13:28:51.128Z,98416.06
2022-08-11T13:31:11.077Z,98416.03
2022-08-11T13:33:12.444Z,98418.72
2022-08-11T13:35:15.148Z,98411.88
2022-08-11T13:37:16.516Z,98405.84
2022-08-11T13:39:18.058Z,98419.41
2022-08-11T13:41:39.448Z,98416.06
2022-08-11T13:43:41.419Z,98404.75
2022-08-11T13:45:42.735Z,98406.41
2022-08-11T13:47:44.039Z,98402.03
2022-08-11T13:49:45.342Z,98402.81
2022-08-11T13:51:46.719Z,98400.94
2022-08-11T13:53:48.059Z,98400.84
2022-08-11T13:55:51.351Z,98405.06
2022-08-11T13:58:08.271Z,98393.81
2022-08-11T14:00:26.959Z,98389.88
2022-08-11T14:02:30.827Z,98405.75
2022-08-11T14:04:33.611Z,98396.66
2022-08-11T14:06:35.591Z,98391.66
2022-08-11T14:08:38.411Z,98397.66
2022-08-11T14:10:40.347Z,98395.97
2022-08-11T14:13:00.459Z,98386.56
2022-08-11T14:15:07.556Z,98388.19
2022-08-11T14:17:09.971Z,98383.91
2022-08-11T14:19:11.785Z,98379.53
2022-08-11T14:21:31.975Z,98381.19
2022-08-11T14:23:33.369Z,98371.91
2022-08-11T14:26:00.767Z,98386.53
2022-08-11T14:28:31.934Z,98374.66
2022-08-11T14:30:37.083Z,98378.91
2022-08-11T14:32:53.077Z,98378.91
2022-08-11T14:34:58.778Z,98377.19
2022-08-11T14:37:00.094Z,98375.34
2022-08-11T14:39:01.454Z,98372.88
2022-08-11T14:41:21.717Z,98380.63
2022-08-11T14:44:13.246Z,98366.16
2022-08-11T14:46:21.615Z,98361.88
2022-08-11T14:48:22.930Z,98362.69
2022-08-11T14:50:24.360Z,98370.44
2022-08-11T14:52:25.659Z,98362.84
2022-08-11T14:54:45.920Z,98374.81
2022-08-11T14:56:47.268Z,98372.31
2022-08-11T14:58:48.673Z,98364.53
2022-08-11T15:00:50.049Z,98366.25
2022-08-11T15:03:10.706Z,98354.28
2022-08-11T15:05:12.679Z,98355.19
2022-08-11T15:07:16.970Z,98354.38
2022-08-11T15:09:18.818Z,98357.78
2022-08-11T15:11:38.931Z,98360.34
2022-08-11T15:13:40.304Z,98348.44
2022-08-11T15:16:05.615Z,98351.88
2022-08-11T15:18:07.219Z,98339.09
2022-08-11T15:20:27.075Z,98348.44
2022-08-11T15:22:46.995Z,98343.31
2022-08-11T15:24:48.320Z,98334.66
2022-08-11T15:27:08.113Z,98333.75
2022-08-11T15:29:28.051Z,98331.97
2022-08-11T15:31:49.548Z,98330.25
2022-08-11T15:34:09.498Z,98330.25
2022-08-11T15:36:29.423Z,98337.88
2022-08-11T15:38:33.427Z,98333.56
2022-08-11T15:40:53.327Z,98335.25
2022-08-11T15:43:13.217Z,98326.19
2022-08-11T15:45:32.961Z,98329.88
2022-08-11T15:47:34.423Z,98327.59
2022-08-11T15:50:11.095Z,98316.56
2022-08-11T15:52:01.864Z,98316.13
2022-08-11T15:54:08.602Z,98318.56
2022-08-11T15:56:11.098Z,98322.56
2022-08-11T15:58:31.039Z,98318.50
2022-08-11T16:00:59.018Z,98325.00
2022-08-11T16:03:24.440Z,98307.75
2022-08-11T16:05:51.354Z,98311.84
2022-08-11T16:07:54.663Z,98304.84
2022-08-11T16:10:00.261Z,98310.09
2022-08-11T16:12:01.927Z,98313.06
2022-08-11T16:14:22.046Z,98313.28
2022-08-11T16:16:23.382Z,98323.25
2022-08-11T16:18:24.694Z,98305.94
2022-08-11T16:20:26.059Z,98309.09
2022-08-11T16:22:38.414Z,98306.00
2022-08-11T16:27:03.406Z,98298.53
2022-08-11T16:27:10.077Z,98310.66
2022-08-11T16:29:14.198Z,98304.75
2022-08-11T16:31:15.503Z,98303.19
2022-08-11T16:33:48.468Z,98293.88
2022-08-11T16:35:56.936Z,98300.81
2022-08-11T16:38:16.920Z,98295.81
2022-08-11T16:40:18.274Z,98306.88
2022-08-11T16:43:05.289Z,98300.94
2022-08-11T16:45:18.157Z,98302.72
2022-08-11T16:48:03.572Z,98302.88
2022-08-11T16:49:40.772Z,98308.03
2022-08-11T16:51:42.081Z,98300.31
2022-08-11T16:54:04.146Z,98307.16
2022-08-11T16:56:05.599Z,98300.41
2022-08-11T16:58:25.376Z,98302.19
2022-08-11T17:00:26.784Z,98303.97
2022-08-11T17:02:46.986Z,98305.63
2022-08-11T17:05:06.921Z,98305.69
2022-08-11T17:07:50.104Z,98308.25
2022-08-11T17:10:06.579Z,98311.69
2022-08-11T17:12:46.759Z,98305.78
2022-08-11T17:14:48.081Z,98165.41
2022-08-11T17:16:49.383Z,98308.41
2022-08-11T17:18:52.786Z,98311.84
2022-08-11T17:20:55.651Z,98306.78
2022-08-11T17:23:15.735Z,98307.66
2022-08-11T17:25:17.085Z,98305.09
2022-08-11T17:27:18.421Z,98304.13
2022-08-11T17:29:19.798Z,98310.25
2022-08-11T17:31:40.053Z,98305.56
2022-08-11T17:33:59.849Z,98308.06
2022-08-11T17:36:01.195Z,98303.28
2022-08-11T17:38:03.945Z,98305.00
2022-08-11T17:40:05.305Z,98302.31
2022-08-11T17:42:25.148Z,98308.03
2022-08-11T17:44:45.003Z,98308.03
2022-08-11T17:47:06.392Z,98300.41
2022-08-11T17:49:07.890Z,98308.16
2022-08-11T17:51:09.238Z,98303.16
2022-08-11T17:53:29.415Z,98309.00
2022-08-11T17:55:51.819Z,98311.44
2022-08-11T17:58:13.146Z,98313.94
2022-08-11T18:00:14.538Z,98314.78
2022-08-11T18:02:35.271Z,98310.28
2022-08-11T18:04:36.630Z,98315.66
2022-08-11T18:06:37.984Z,98315.19
2022-08-11T18:08:58.102Z,98316.25
2022-08-11T18:12:09.850Z,98313.91
2022-08-11T18:13:58.128Z,98314.88
2022-08-11T18:16:17.984Z,98318.44
2022-08-11T18:18:37.811Z,98322.81
2022-08-11T18:20:57.582Z,98322.91
2022-08-11T18:23:17.463Z,98318.69
2022-08-11T18:25:40.778Z,98323.94
2022-08-11T18:28:03.210Z,98325.72
2022-08-11T18:30:23.449Z,98325.75
2022-08-11T18:32:50.010Z,98324.19
2022-08-11T18:35:10.223Z,98330.22
2022-08-11T18:37:30.331Z,98337.13
2022-08-11T18:39:56.181Z,98326.94
2022-08-11T18:42:26.655Z,98336.34
2022-08-11T18:44:49.660Z,98330.44
2022-08-11T18:47:10.378Z,98338.19
2022-08-11T18:50:01.572Z,98341.78
2022-08-11T18:52:11.227Z,98338.28
2022-08-11T18:54:31.321Z,98332.81
2022-08-11T18:56:51.238Z,98335.31
2022-08-11T18:59:11.152Z,98329.88
2022-08-11T19:01:31.099Z,98339.34
2022-08-11T19:03:51.066Z,98333.59
2022-08-11T19:06:39.047Z,98338.00
2022-08-11T19:08:51.854Z,98342.97
2022-08-11T19:11:12.002Z,98342.63
2022-08-11T19:13:31.721Z,98339.25
2022-08-11T19:15:51.487Z,98331.25
2022-08-11T19:18:12.853Z,98339.03
2022-08-11T19:20:32.600Z,98336.38
2022-08-11T19:22:52.411Z,98334.91
2022-08-11T19:25:12.526Z,98333.25
2022-08-11T19:27:33.785Z,98332.81
2022-08-11T19:30:04.662Z,98331.03
2022-08-11T19:32:33.513Z,98334.00
2022-08-11T19:34:53.278Z,98335.84
2022-08-11T19:37:13.076Z,98342.31
2022-08-11T19:39:33.166Z,98339.28
2022-08-11T19:41:57.873Z,98336.38
2022-08-11T19:44:17.924Z,98332.19
2022-08-11T19:46:37.675Z,98327.16
2022-08-11T19:48:57.537Z,98328.91
2022-08-11T19:51:17.488Z,98338.28
2022-08-11T19:53:37.769Z,98344.09
2022-08-11T19:55:57.595Z,98338.28
2022-08-11T19:58:17.514Z,98332.97
2022-08-11T20:00:37.378Z,98341.34
2022-08-11T20:02:57.357Z,98329.50
2022-08-11T20:05:17.270Z,98341.84
2022-08-11T20:07:37.206Z,98337.31
2022-08-11T20:10:00.962Z,98337.53
2022-08-11T20:12:26.269Z,98339.38
2022-08-11T20:14:46.337Z,98335.13
2022-08-11T20:17:06.159Z,98341.19
2022-08-11T20:19:54.962Z,98342.16
2022-08-11T20:22:08.933Z,98338.88
2022-08-11T20:24:30.488Z,98350.03
2022-08-11T20:26:50.356Z,98349.25
2022-08-11T20:29:10.673Z,98347.66
2022-08-11T20:31:30.951Z,98335.78
2022-08-11T20:33:51.033Z,98343.56
2022-08-11T20:36:11.032Z,98352.16
2022-08-11T20:38:31.030Z,98336.84
2022-08-11T20:40:50.868Z,98339.50
2022-08-11T20:43:15.895Z,98341.31
2022-08-11T20:45:55.323Z,98343.88
2022-08-11T20:48:17.570Z,98344.81
2022-08-11T20:50:37.452Z,98345.72
2022-08-11T20:52:57.411Z,98354.28
2022-08-11T20:55:19.225Z,98356.06
2022-08-11T20:57:59.470Z,98354.41
2022-08-11T21:00:38.565Z,98355.38
2022-08-11T21:02:59.937Z,98356.25
2022-08-11T21:05:21.654Z,98356.31
2022-08-11T21:07:59.643Z,98353.00
2022-08-11T21:10:23.821Z,98357.28
2022-08-11T21:12:44.485Z,98368.19
2022-08-11T21:15:10.767Z,98357.00
2022-08-11T21:17:30.571Z,98360.47
2022-08-11T21:20:00.389Z,98361.41
2022-08-11T21:22:21.771Z,98360.53
2022-08-11T21:24:48.151Z,98361.47
2022-08-11T21:27:08.263Z,98365.75
2022-08-11T21:29:36.259Z,98371.78
2022-08-11T21:31:56.236Z,98370.31
2022-08-11T21:34:16.224Z,98375.31
2022-08-11T21:36:36.193Z,98375.41
2022-08-11T21:38:56.454Z,98372.53
2022-08-11T21:41:16.414Z,98369.00
2022-08-11T21:43:36.520Z,98374.97
2022-08-11T21:45:56.412Z,98370.72
2022-08-11T21:48:16.210Z,98376.72
2022-08-11T21:50:36.019Z,98376.72
2022-08-11T21:52:56.004Z,98376.69
2022-08-11T21:55:15.782Z,98376.72
2022-08-11T21:57:35.920Z,98381.00
2022-08-11T22:00:08.395Z,98378.41
2022-08-11T22:02:28.590Z,98377.59
2022-08-11T22:04:48.503Z,98374.25
2022-08-11T22:07:08.506Z,98379.41
2022-08-11T22:09:28.619Z,98376.06
2022-08-11T22:11:48.696Z,98373.53
2022-08-11T22:14:28.551Z,98365.06
2022-08-11T22:16:48.605Z,98365.94
2022-08-11T22:19:08.544Z,98363.38
2022-08-11T22:21:57.011Z,98362.56
2022-08-11T22:24:08.323Z,98361.72
2022-08-11T22:26:29.767Z,98364.22
2022-08-11T22:28:49.648Z,98363.38
2022-08-11T22:31:09.454Z,98360.88
2022-08-11T22:33:29.287Z,98360.97
2022-08-11T22:35:49.528Z,98361.81
2022-08-11T22:38:09.412Z,98360.97
2022-08-11T22:40:29.535Z,98364.38
2022-08-11T22:42:49.511Z,98363.59
2022-08-11T22:45:09.375Z,98363.59
2022-08-11T22:47:34.923Z,98367.84
2022-08-11T22:50:00.749Z,98367.94
2022-08-11T22:52:20.603Z,98361.97
2022-08-11T22:54:40.426Z,98367.94
2022-08-11T22:57:00.259Z,98360.22
2022-08-11T22:59:20.102Z,98361.88
2022-08-11T23:01:39.894Z,98369.56
2022-08-11T23:04:16.261Z,98369.66
2022-08-11T23:06:36.115Z,98368.84
2022-08-11T23:08:56.027Z,98362.06
2022-08-11T23:11:15.776Z,98363.78
2022-08-11T23:13:35.720Z,98366.34
2022-08-11T23:15:55.607Z,98364.56
2022-08-11T23:18:15.554Z,98365.34
2022-08-11T23:20:36.940Z,98355.16
2022-08-11T23:23:03.830Z,98362.00
2022-08-11T23:25:23.754Z,98359.53
2022-08-11T23:27:43.586Z,98355.31
2022-08-11T23:30:03.932Z,98352.75
2022-08-11T23:32:24.486Z,98355.44
2022-08-11T23:35:04.136Z,98353.66
2022-08-11T23:37:24.472Z,98357.97
2022-08-11T23:39:44.577Z,98360.59
2022-08-11T23:42:04.712Z,98367.50
2022-08-11T23:44:24.538Z,98361.44
2022-08-11T23:46:44.269Z,98354.72
2022-08-11T23:49:04.058Z,98358.13
2022-08-11T23:51:23.900Z,98360.72
2022-08-11T23:53:43.703Z,98353.13
2022-08-11T23:56:03.500Z,98355.69
2022-08-11T23:58:23.370Z,98355.75
